Terminal Aerodrome Forecast
Issued by NWS Upton, NY

Home | Current Version | Previous Version | Text Only | Print | Product List | Glossary On
Versions: 1 2 3 4 5 6 7 8 9 10 11 12 13 14 15 16 17 18 19 20 21 22 23 24 25 26 27 28 29 30 31 32 33 34 35 36 37 38 39 40 41 42 43 44
597
FTUS41 KOKX 292042 AAB
TAFJFK
TAF AMD
KJFK 292042Z 2921/3024 27018G28KT P6SM SCT050 BKN200
     FM292300 29014G20KT P6SM SCT050 BKN200
     FM300100 31008KT P6SM BKN200
     FM300300 36008KT P6SM FEW050 SCT200
     FM301000 03008KT P6SM SCT050
     FM301400 08009KT P6SM BKN050
     FM301800 12013KT P6SM FEW025 BKN040=

USA.gov is the U.S. government's official web portal to all federal, state and local government web resources and services.